Latest Weather Observations for Warruwi

IDD60801

Issued at 11:31 pm CST Sunday 17 February 2019 (issued every 10 minutes, with the page automatically refreshed every 10 minutes)

About weather observations | Map of weather stations | Latest weather observations for NT | Other Formats
Station Details ID: 014401 Name: WARRUWI AIRPORT Lat: -11.65 Lon: 133.38 Height: 19.2 m
Data from the previous 72 hours. | See also: Recent months at Warruwi
Date/Time
CST
Temp
°C
App
Temp
°C
Dew
Point
°C
Rel
Hum
%
Delta-T
°C
Wind Press
QNH
hPa
Press
MSL
hPa
Rain since
9am
mm
Dir  Spd
km/h
Gust
km/h
Spd
kts
Gust
kts
17/11:30pm 28.8 34.1 25.2 81 2.5 WNW 7 13 4 7 1011.7 1011.5 0.0
17/11:00pm 28.7 34.2 25.3 82 2.4 NW 6 11 3 6 1011.6 1011.4 0.0
17/10:30pm 28.8 34.9 25.6 83 2.3 NW 4 7 2 4 1011.3 1011.1 0.0
17/10:00pm 28.9 34.9 25.5 82 2.4 NW 4 9 2 5 1011.2 1011.0 0.0
17/09:30pm 28.8 34.0 24.8 79 2.8 NW 6 11 3 6 1010.9 1010.7 0.0
17/09:00pm 28.7 34.2 25.3 82 2.4 NW 6 9 3 5 1010.3 1010.1 0.0
17/08:30pm 28.8 34.1 25.0 80 2.7 NW 6 9 3 5 1009.9 1009.7 0.0
17/08:00pm 28.8 34.2 25.4 82 2.4 NW 7 13 4 7 1009.8 1009.6 0.0
17/07:30pm 28.9 34.3 25.1 80 2.7 NW 6 9 3 5 1009.7 1009.5 0.0
17/07:00pm 29.3 34.4 24.6 76 3.3 NNW 6 11 3 6 1009.1 1008.9 0.0
17/06:30pm 29.8 34.6 24.2 72 3.9 NW 6 13 3 7 1008.9 1008.7 0.0
17/06:00pm 30.6 34.9 24.3 69 4.4 NNW 9 19 5 10 1008.5 1008.3 0.0
17/05:30pm 30.5 34.8 24.2 69 4.4 NNW 9 17 5 9 1008.1 1007.9 0.0
17/05:00pm 31.1 35.4 24.2 66 4.8 N 9 19 5 10 1008.0 1007.8 0.0
17/04:30pm 31.1 34.9 24.0 66 4.9 N 11 19 6 10 1007.8 1007.6 0.0
17/04:00pm 32.2 36.6 24.5 64 5.4 NNW 9 15 5 8 1008.3 1008.1 0.0
17/03:30pm 32.6 36.4 23.5 58 6.3 N 9 15 5 8 1008.7 1008.5 0.0
17/03:00pm 32.5 36.7 23.4 58 6.3 N 7 13 4 7 1009.1 1008.9 0.0
17/02:30pm 32.6 36.4 23.5 58 6.3 N 9 15 5 8 1009.6 1009.4 0.0
17/02:00pm 32.5 37.0 24.0 61 5.9 N 7 13 4 7 1010.0 1009.8 0.0
17/01:30pm 32.4 36.9 23.9 61 5.9 N 7 11 4 6 1010.5 1010.3 0.0
17/01:00pm 32.1 36.5 24.4 63 5.4 N 9 17 5 9 1011.0 1010.8 0.0
17/12:30pm 31.4 36.1 24.3 66 5.0 NNW 7 15 4 8 1011.5 1011.3 0.0
17/12:00pm 32.0 37.7 25.6 69 4.6 NW 6 13 3 7 1011.8 1011.6 0.0
17/11:30am 31.8 36.9 24.9 67 4.9 NW 7 13 4 7 1012.2 1012.0 0.0
17/11:00am 31.0 35.4 24.4 68 4.6 WNW 9 13 5 7 1012.5 1012.3 0.0
17/10:30am 30.3 34.7 24.4 70 4.1 WNW 9 15 5 8 1012.6 1012.4 0.0
17/10:00am 30.2 34.8 25.3 75 3.5 W 11 17 6 9 1012.9 1012.7 0.0
17/09:30am 30.3 34.7 25.1 73 3.7 W 11 17 6 9 1012.9 1012.7 0.0
17/09:00am 30.1 34.5 25.6 77 3.2 W 13 17 7 9 1012.7 1012.5 0.0
17/08:30am 29.5 34.6 25.5 79 2.8 WNW 9 17 5 9 1012.5 1012.3 0.0
17/08:00am 28.9 33.7 25.1 80 2.7 WNW 9 13 5 7 1012.1 1011.9 0.0
17/07:30am 28.7 33.9 25.1 81 2.5 WNW 7 15 4 8 1011.4 1011.2 0.0
17/07:00am 27.8 33.4 25.4 87 1.7 NW 6 13 3 7 1011.0 1010.8 0.0
17/06:30am 27.6 33.0 25.2 87 1.7 NW 6 11 3 6 1010.5 1010.3 0.0
17/06:00am 27.6 33.4 25.2 87 1.7 NW 4 7 2 4 1010.2 1010.0 0.0
17/05:30am 27.6 33.9 25.4 88 1.5 NNW 2 6 1 3 1010.0 1009.8 0.0
17/05:00am 27.5 33.4 25.3 88 1.5 NNW 4 9 2 5 1009.7 1009.5 0.0
17/04:30am 27.3 33.7 24.9 87 1.7 CALM 0 6 0 3 1009.7 1009.5 0.0
17/04:00am 27.3 32.9 24.9 87 1.7 NW 4 7 2 4 1009.6 1009.4 0.0
17/03:30am 27.3 33.6 24.7 86 1.8 CALM 0 4 0 2 1009.7 1009.5 0.0
17/03:00am 27.4 33.0 24.8 86 1.8 NW 4 6 2 3 1009.9 1009.7 0.0
17/02:30am 27.5 33.1 24.9 86 1.8 NW 4 6 2 3 1010.3 1010.1 0.0
17/02:00am 27.5 33.8 24.7 85 1.9 CALM 0 4 0 2 1010.6 1010.4 0.0
17/01:30am 27.6 33.1 24.6 84 2.1 NW 4 6 2 3 1010.8 1010.6 0.0
17/01:00am 28.0 33.5 24.6 82 2.4 NW 4 9 2 5 1011.3 1011.1 0.0
17/12:30am 28.4 33.3 24.4 79 2.8 WNW 6 7 3 4 1012.0 1011.8 0.0
17/12:00am 27.7 33.1 24.5 83 2.2 NW 4 7 2 4 1012.3 1012.1 0.0
 
Date/Time
CST
Temp
°C
App
Temp
°C
Dew
Point
°C
Rel
Hum
%
Delta-T
°C
Wind Press
QNH
hPa
Press
MSL
hPa
Rain since
9am
mm
Dir  Spd
km/h
Gust
km/h
Spd
kts
Gust
kts
16/11:30pm 28.0 33.1 24.6 82 2.4 NW 6 9 3 5 1012.3 1012.1 0.0
16/11:00pm 27.8 32.9 24.0 80 2.6 NW 4 6 2 3 1012.3 1012.1 0.0
16/10:30pm 28.4 33.0 23.8 76 3.2 NW 6 7 3 4 1012.3 1012.1 0.0
16/10:00pm 28.7 32.8 24.0 76 3.3 WNW 9 15 5 8 1012.2 1012.0 0.0
16/09:30pm 28.6 33.3 23.9 75 3.2 NW 6 9 3 5 1011.9 1011.7 0.0
16/09:00pm 28.7 33.6 24.3 77 3.1 NW 6 9 3 5 1011.8 1011.6 0.0
16/08:30pm 28.8 33.6 24.1 76 3.3 NNW 6 9 3 5 1011.3 1011.1 0.0
16/08:00pm 29.0 33.9 24.6 77 3.1 NNW 7 13 4 7 1010.4 1010.2 0.0
16/07:30pm 29.2 33.8 24.1 74 3.5 NNW 7 11 4 6 1009.7 1009.5 0.0
16/07:00pm 29.4 34.3 24.3 74 3.5 NNW 6 11 3 6 1009.4 1009.2 0.0
16/06:30pm 29.9 33.9 23.8 70 4.2 NNW 9 15 5 8 1009.1 1008.9 0.0
16/06:00pm 30.9 35.6 24.3 68 4.6 NNW 7 15 4 8 1008.3 1008.1 0.0
16/05:30pm 31.0 34.7 23.9 66 4.9 NNW 11 20 6 11 1008.0 1007.8 0.0
16/05:00pm 31.8 36.4 24.1 63 5.4 NNW 7 13 4 7 1008.1 1007.9 0.0
16/04:30pm 32.0 36.3 24.3 63 5.4 N 9 19 5 10 1008.2 1008.0 0.0
16/04:00pm 32.8 36.3 22.9 56 6.8 NNW 9 22 5 12 1008.6 1008.4 0.0
16/03:30pm 33.0 37.3 24.2 60 6.2 NNW 9 17 5 9 1008.8 1008.6 0.0
16/03:00pm 32.5 36.1 23.7 59 6.1 NNW 11 19 6 10 1009.2 1009.0 0.0
16/02:30pm 32.4 36.4 24.4 62 5.6 N 11 20 6 11 1009.8 1009.6 0.0
16/02:00pm 32.8 37.5 25.6 66 5.1 NNW 11 19 6 10 1010.4 1010.2 0.0
16/01:30pm 33.5 38.4 25.2 62 5.9 NNW 9 17 5 9 1010.9 1010.7 0.0
16/01:00pm 32.8 38.3 25.3 64 5.3 NNW 6 13 3 7 1011.5 1011.3 0.0
16/12:30pm 33.2 38.5 24.9 61 5.9 NE 6 9 3 5 1011.9 1011.7 0.0
16/12:00pm 32.9 39.0 26.2 68 4.8 NNE 6 13 3 7 1012.3 1012.1 0.0
16/11:30am 32.1 38.1 24.9 65 5.1 S 2 6 1 3 1012.6 1012.4 0.0
16/11:00am 31.9 37.3 26.0 71 4.2 W 9 13 5 7 1012.9 1012.7 0.0
16/10:30am 31.2 36.5 25.8 73 3.8 WNW 9 13 5 7 1013.0 1012.8 0.0
16/10:00am 30.8 36.3 25.6 74 3.7 W 7 13 4 7 1013.1 1012.9 0.0
16/09:30am 30.4 35.9 26.1 78 3.1 W 9 13 5 7 1013.3 1013.1 0.0
16/09:00am 29.9 35.6 25.9 79 2.8 W 7 13 4 7 1013.1 1012.9 0.0
16/08:30am 29.7 34.7 25.4 78 3.0 W 9 15 5 8 1012.7 1012.5 0.0
16/08:00am 29.2 34.5 25.2 79 2.8 W 7 11 4 6 1012.5 1012.3 0.0
16/07:30am 28.7 34.3 25.7 84 2.1 W 7 11 4 6 1012.3 1012.1 0.0
16/07:00am 27.9 33.7 25.7 88 1.6 WNW 6 11 3 6 1012.0 1011.8 0.0
16/06:30am 27.7 33.2 25.3 87 1.7 WNW 6 9 3 5 1011.8 1011.6 0.0
16/06:00am 27.9 33.0 25.5 87 1.7 W 9 13 5 7 1011.7 1011.5 0.0
16/05:30am 27.2 32.7 24.7 86 1.7 WNW 4 7 2 4 1011.5 1011.3 0.0
16/05:00am 27.6 33.7 25.0 86 1.8 W 2 6 1 3 1011.4 1011.2 0.0
16/04:30am 27.5 33.1 24.9 86 1.8 WNW 4 6 2 3 1011.2 1011.0 0.0
16/04:00am 27.5 33.4 25.3 88 1.5 WNW 4 6 2 3 1011.0 1010.8 0.0
16/03:30am 27.9 33.3 25.1 85 2.0 NW 6 9 3 5 1011.0 1010.8 0.0
16/03:00am 28.3 34.2 25.9 87 1.7 WNW 6 11 3 6 1011.4 1011.2 0.0
16/02:30am 28.5 34.5 26.1 87 1.7 WNW 6 17 3 9 1011.7 1011.5 0.0
16/02:00am 28.4 34.5 26.2 88 1.6 WNW 6 9 3 5 1012.0 1011.8 0.0
16/01:30am 28.3 34.5 26.3 89 1.4 WNW 6 9 3 5 1012.5 1012.3 0.0
16/01:00am 28.1 34.5 26.1 89 1.4 WNW 4 9 2 5 1012.4 1012.2 0.0
16/12:30am 28.2 34.7 26.2 89 1.4 NW 4 9 2 5 1012.6 1012.4 0.0
16/12:00am 28.3 34.3 26.1 88 1.6 NW 6 15 3 8 1012.8 1012.6 0.0
 
Date/Time
CST
Temp
°C
App
Temp
°C
Dew
Point
°C
Rel
Hum
%
Delta-T
°C
Wind Press
QNH
hPa
Press
MSL
hPa
Rain since
9am
mm
Dir  Spd
km/h
Gust
km/h
Spd
kts
Gust
kts
15/11:30pm 28.7 34.5 26.1 86 1.8 NW 7 11 4 6 1013.2 1013.0 0.0
15/11:00pm 28.9 35.2 25.9 84 2.1 W 4 7 2 4 1013.6 1013.4 0.0
15/10:30pm 29.1 34.9 25.7 82 2.4 WNW 6 11 3 6 1013.4 1013.2 0.0
15/10:00pm 29.0 35.5 26.8 88 1.6 NW 6 9 3 5 1013.0 1012.8 0.0
15/09:30pm 28.9 35.3 26.7 88 1.6 NW 6 13 3 7 1012.8 1012.6 0.0
15/09:00pm 28.9 35.6 26.5 87 1.7 NW 4 9 2 5 1012.2 1012.0 0.0
15/08:30pm 29.0 35.2 26.4 86 1.9 NNW 6 11 3 6 1011.5 1011.3 0.0
15/08:00pm 29.0 35.1 26.2 85 2.0 NW 6 9 3 5 1011.6 1011.4 0.0
15/07:30pm 29.2 34.7 25.6 81 2.5 NNW 7 15 4 8 1011.3 1011.1 0.0
15/07:00pm 29.2 34.9 25.6 81 2.5 NNW 6 13 3 7 1011.0 1010.8 0.0
15/06:30pm 29.7 35.0 25.9 80 2.7 NNW 9 15 5 8 1010.2 1010.0 0.0
15/06:00pm 30.4 35.6 25.7 76 3.3 NNW 9 17 5 9 1009.9 1009.7 0.0
15/05:30pm 31.1 37.0 26.8 78 3.1 NW 9 19 5 10 1009.3 1009.1 0.0
15/05:00pm 31.1 36.4 26.4 76 3.4 NNW 11 20 6 11 1009.2 1009.0 0.0
15/04:30pm 31.8 37.7 26.8 75 3.6 NNW 9 19 5 10 1009.1 1008.9 0.0
15/04:00pm 31.0 35.4 25.6 73 3.8 NNW 13 24 7 13 1009.5 1009.3 0.0
15/03:30pm 31.8 36.8 25.4 69 4.5 NNW 9 20 5 11 1009.9 1009.7 0.0
15/03:00pm 31.1 35.5 25.0 70 4.3 NW 11 20 6 11 1010.3 1010.1 0.0
15/02:30pm 31.0 35.8 25.1 71 4.2 NNW 9 22 5 12 1010.7 1010.5 0.0
15/02:00pm 31.8 36.3 25.2 68 4.7 NNW 11 20 6 11 1010.9 1010.7 0.0
15/01:30pm 31.7 35.8 24.6 66 5.0 NW 11 17 6 9 1011.3 1011.1 0.0
15/01:00pm 31.3 36.4 25.6 71 4.0 NNW 9 17 5 9 1011.8 1011.6 0.0
15/12:30pm 31.4 36.1 25.0 69 4.5 NW 9 15 5 8 1012.2 1012.0 0.0
15/12:00pm 30.9 35.4 26.4 77 3.2 WNW 15 20 8 11 1012.7 1012.5 0.0
15/11:30am 30.5 35.8 25.8 76 3.3 WNW 9 15 5 8 1012.9 1012.7 0.0
15/11:00am 30.3 35.4 25.6 76 3.3 NW 9 19 5 10 1012.9 1012.7 0.0
15/10:30am 31.1 37.1 26.4 76 3.4 NNW 7 13 4 7 1013.1 1012.9 0.0
15/10:00am 30.1 35.7 25.4 76 3.3 NNW 6 11 3 6 1013.0 1012.8 0.0
15/09:30am 29.8 35.2 25.5 78 3.0 NNW 7 15 4 8 1012.9 1012.7 0.0
15/09:00am 29.9 35.5 25.4 77 3.2 N 6 9 3 5 1012.8 1012.6 0.0
15/08:30am 29.7 36.0 24.8 75 3.4 CALM 0 0 0 0 1012.4 1012.2 0.0
15/08:00am 28.6 34.7 24.4 78 2.9 CALM 0 0 0 0 1012.0 1011.8 0.0
15/07:30am 26.3 32.3 24.3 89 1.4 CALM 0 0 0 0 1011.7 1011.5 0.0
15/07:00am 25.5 31.2 23.7 90 1.2 CALM 0 0 0 0 1011.4 1011.2 0.0
15/06:30am 25.1 30.5 23.2 89 1.3 CALM 0 0 0 0 1011.0 1010.8 0.0
15/06:00am 25.4 30.7 23.1 87 1.6 CALM 0 0 0 0 1010.7 1010.5 0.0
15/05:30am 25.3 30.5 22.8 86 1.7 CALM 0 0 0 0 1010.4 1010.2 0.0
15/05:00am 25.5 30.8 23.0 86 1.7 CALM 0 0 0 0 1010.4 1010.2 0.0
15/04:30am 25.6 30.8 23.5 88 1.4 SSE 2 6 1 3 1010.3 1010.1 0.0
15/04:00am 25.1 30.2 22.6 86 1.7 CALM 0 0 0 0 1010.2 1010.0 0.0
15/03:30am 25.2 30.3 22.7 86 1.7 CALM 0 0 0 0 1010.3 1010.1 0.0
15/03:00am 25.4 30.4 22.5 84 2.0 CALM 0 0 0 0 1010.5 1010.3 0.0
15/02:30am 25.9 30.8 22.4 81 2.4 CALM 0 0 0 0 1010.6 1010.4 0.0
15/02:00am 26.7 31.2 22.3 77 3.0 S 2 4 1 2 1011.1 1010.9 0.0
15/01:30am 27.5 31.0 22.9 76 3.1 WSW 9 11 5 6 1011.1 1010.9 0.0
15/01:00am 27.4 30.7 21.4 70 4.0 SW 6 9 3 5 1011.5 1011.3 0.0
15/12:30am 27.2 30.6 21.7 72 3.7 W 6 9 3 5 1011.6 1011.4 0.0
15/12:00am 26.6 30.4 22.4 78 2.8 W 6 9 3 5 1011.9 1011.7 0.0

Other Formats:

Comma delimited format used in spreadsheet applications
http://www.bom.gov.au/fwo/IDD60801/IDD60801.94139.axf

JavaScript Object Notation format (JSON) in row-major order
http://www.bom.gov.au/fwo/IDD60801/IDD60801.94139.json